Time;durP1;ratioP1;P1;durP2;ratioP2;P2;SDS_P1;SDS_P2;PMS_P1;PMS_P2;Temp;Humidity;BMP_temperature;BMP_pressure;BME280_temperature;BME280_humidity;BME280_pressure;Samples;Min_cycle;Max_cycle;Signal;HPM_P1;HPM_P2
2023/12/15 00:00:01;;;;;;;6.27;6.17;;;5.60;99.90;;;;;;5077483;28;20544;-70
2023/12/15 00:02:28;;;;;;;6.80;6.70;;;5.60;99.90;;;;;;5077180;28;20883;-71
2023/12/15 00:04:55;;;;;;;6.80;6.70;;;5.60;99.90;;;;;;5093138;28;20461;-70
2023/12/15 00:07:22;;;;;;;7.07;6.97;;;5.60;99.90;;;;;;5087431;28;20464;-71
2023/12/15 00:09:50;;;;;;;6.20;6.10;;;5.70;99.90;;;;;;5091858;28;20818;-70
2023/12/15 00:12:17;;;;;;;5.90;5.80;;;5.70;99.90;;;;;;5085124;28;20461;-70
2023/12/15 00:14:44;;;;;;;6.10;6.00;;;5.70;99.90;;;;;;5087258;28;20975;-72
2023/12/15 00:17:12;;;;;;;6.37;6.27;;;5.70;99.90;;;;;;5077827;28;20578;-72
2023/12/15 00:19:39;;;;;;;5.87;5.77;;;5.80;99.90;;;;;;5087176;28;22381;-72
2023/12/15 00:22:06;;;;;;;5.87;5.77;;;5.80;99.90;;;;;;5078800;28;20459;-70
2023/12/15 00:24:33;;;;;;;6.07;5.97;;;5.80;99.90;;;;;;5091436;28;20881;-71
2023/12/15 00:27:00;;;;;;;5.43;5.33;;;5.80;99.90;;;;;;5091179;28;20467;-70
2023/12/15 00:29:27;;;;;;;5.30;5.20;;;5.80;99.90;;;;;;5079380;28;20568;-71
2023/12/15 00:34:37;;;;;;;6.10;6.00;;;5.80;99.90;;;;;;5090298;28;20463;-71
2023/12/15 00:37:04;;;;;;;5.33;5.23;;;5.90;99.90;;;;;;5088194;28;20490;-70
2023/12/15 00:39:31;;;;;;;6.13;6.03;;;5.80;99.90;;;;;;5075133;28;20815;-71
2023/12/15 00:41:58;;;;;;;5.87;5.77;;;5.90;99.90;;;;;;5090600;28;20548;-72
2023/12/15 00:44:25;;;;;;;5.70;5.60;;;5.80;99.90;;;;;;5087059;28;20470;-71
2023/12/15 00:46:52;;;;;;;6.00;5.90;;;5.90;99.90;;;;;;5097902;28;20450;-72
2023/12/15 00:49:19;;;;;;;6.20;6.10;;;5.90;99.90;;;;;;5082429;28;20470;-71
2023/12/15 00:51:48;;;;;;;5.80;5.70;;;5.90;99.90;;;;;;5078062;28;20516;-72
2023/12/15 00:54:14;;;;;;;5.80;5.70;;;5.90;99.90;;;;;;5089875;28;20797;-71
2023/12/15 00:56:42;;;;;;;5.67;5.57;;;5.90;99.90;;;;;;5079460;28;21048;-72
2023/12/15 00:59:09;;;;;;;5.70;5.60;;;6.00;99.90;;;;;;5088510;28;20458;-71
2023/12/15 01:01:35;;;;;;;4.87;4.87;;;6.00;99.90;;;;;;5083396;28;20458;-71
2023/12/15 01:04:03;;;;;;;4.53;4.53;;;6.10;99.90;;;;;;5085857;28;20461;-73
2023/12/15 01:06:30;;;;;;;4.90;4.90;;;6.00;99.90;;;;;;5079347;28;20462;-72
2023/12/15 01:09:00;;;;;;;5.50;5.40;;;6.00;99.90;;;;;;5082542;28;20484;-72
2023/12/15 01:11:26;;;;;;;5.50;5.40;;;6.10;99.90;;;;;;5089075;28;20860;-71
2023/12/15 01:13:54;;;;;;;4.83;4.83;;;6.10;99.90;;;;;;5078060;28;20466;-72
2023/12/15 01:16:21;;;;;;;5.70;5.60;;;6.20;99.90;;;;;;5074662;28;20489;-71
2023/12/15 01:18:47;;;;;;;5.20;5.10;;;6.20;99.90;;;;;;5084321;28;20473;-73
2023/12/15 01:21:14;;;;;;;5.27;5.17;;;6.20;99.90;;;;;;5081206;28;20473;-72
2023/12/15 01:23:41;;;;;;;5.47;5.37;;;6.20;99.90;;;;;;5089874;28;20960;-71
2023/12/15 01:26:08;;;;;;;5.87;5.77;;;6.30;99.90;;;;;;5082354;28;20463;-71
2023/12/15 01:28:35;;;;;;;6.20;6.10;;;6.30;99.90;;;;;;5075743;28;20510;-71
2023/12/15 01:31:02;;;;;;;5.73;5.63;;;6.30;99.90;;;;;;5088218;28;20860;-70
2023/12/15 01:33:29;;;;;;;6.17;6.07;;;6.30;99.90;;;;;;5089829;28;20478;-69
2023/12/15 01:35:57;;;;;;;6.17;6.07;;;6.40;99.90;;;;;;5089519;28;20724;-70
2023/12/15 01:38:24;;;;;;;6.13;6.03;;;6.40;99.90;;;;;;5082818;28;20813;-70
2023/12/15 01:40:52;;;;;;;6.37;6.27;;;6.40;99.90;;;;;;5081192;28;20856;-71
2023/12/15 01:43:21;;;;;;;6.10;6.00;;;6.50;99.90;;;;;;5084619;28;20455;-69
2023/12/15 01:45:47;;;;;;;6.13;6.03;;;6.50;99.90;;;;;;5079489;28;20469;-69
2023/12/15 01:48:14;;;;;;;5.70;5.60;;;6.50;99.90;;;;;;5083590;28;20454;-71
2023/12/15 01:50:42;;;;;;;6.70;6.60;;;6.40;99.90;;;;;;5087941;28;20537;-70
2023/12/15 01:53:10;;;;;;;6.83;6.73;;;6.50;99.90;;;;;;5083143;28;20459;-71
2023/12/15 01:55:36;;;;;;;5.97;5.87;;;6.50;99.90;;;;;;5081159;28;20470;-69
2023/12/15 01:58:03;;;;;;;6.10;6.00;;;6.40;99.90;;;;;;5086262;28;20814;-70
2023/12/15 02:00:33;;;;;;;5.57;5.47;;;6.50;99.90;;;;;;5093227;28;20664;-70
2023/12/15 02:02:59;;;;;;;6.60;6.50;;;6.50;99.90;;;;;;5088367;28;20995;-70
2023/12/15 02:05:28;;;;;;;6.70;6.60;;;6.40;99.90;;;;;;5074710;28;20813;-71
2023/12/15 02:07:55;;;;;;;6.20;6.10;;;6.50;99.90;;;;;;5084296;28;20462;-70
2023/12/15 02:10:22;;;;;;;6.57;6.47;;;6.50;99.90;;;;;;5080266;28;20824;-71
2023/12/15 02:12:49;;;;;;;5.50;5.40;;;6.50;99.90;;;;;;5088766;28;20954;-70
2023/12/15 02:15:17;;;;;;;6.73;6.63;;;6.40;99.90;;;;;;5078020;28;20527;-70
2023/12/15 02:17:46;;;;;;;5.87;5.77;;;6.50;99.90;;;;;;5088701;28;20493;-69
2023/12/15 02:20:13;;;;;;;6.70;6.60;;;6.50;99.90;;;;;;5083698;28;20470;-70
2023/12/15 02:22:42;;;;;;;5.90;5.80;;;6.60;99.90;;;;;;5068855;28;20540;-69
2023/12/15 02:25:09;;;;;;;6.60;6.50;;;6.50;99.90;;;;;;5081948;28;21022;-71
2023/12/15 02:27:38;;;;;;;5.47;5.37;;;6.50;99.90;;;;;;5086550;28;20457;-70
2023/12/15 02:30:07;;;;;;;5.77;5.67;;;6.50;99.90;;;;;;5083068;28;20486;-71
2023/12/15 02:32:34;;;;;;;5.70;5.60;;;6.40;99.90;;;;;;5091880;28;20458;-71
2023/12/15 02:35:02;;;;;;;6.80;6.70;;;6.40;99.90;;;;;;5077652;28;20463;-70
2023/12/15 02:37:29;;;;;;;6.50;6.40;;;6.40;99.90;;;;;;5081514;28;20603;-70
2023/12/15 02:39:58;;;;;;;5.60;5.50;;;6.50;99.90;;;;;;5073674;28;20459;-70
2023/12/15 02:42:26;;;;;;;5.67;5.57;;;6.50;99.90;;;;;;5081663;28;20496;-71
2023/12/15 02:44:53;;;;;;;6.80;6.70;;;6.40;99.90;;;;;;5081831;28;20467;-71
2023/12/15 02:47:20;;;;;;;6.30;6.20;;;6.50;99.90;;;;;;5076117;28;20471;-71
2023/12/15 02:49:47;;;;;;;5.80;5.70;;;6.50;99.90;;;;;;5084899;28;20873;-71
2023/12/15 02:52:14;;;;;;;5.60;5.50;;;6.50;99.90;;;;;;5088211;28;20543;-69
2023/12/15 02:54:44;;;;;;;5.60;5.50;;;6.50;99.90;;;;;;5082772;28;20835;-71
2023/12/15 02:57:13;;;;;;;6.10;6.00;;;6.50;99.90;;;;;;5088300;28;20494;-70
2023/12/15 02:59:40;;;;;;;4.83;4.83;;;6.50;99.90;;;;;;5077623;28;20529;-70
2023/12/15 03:02:06;;;;;;;6.00;5.90;;;6.40;99.90;;;;;;5092504;28;20446;-71
2023/12/15 03:04:33;;;;;;;6.00;5.90;;;6.50;99.90;;;;;;5084457;28;20462;-71
2023/12/15 03:07:00;;;;;;;5.50;5.40;;;6.50;99.90;;;;;;5083942;28;20495;-70
2023/12/15 03:09:27;;;;;;;5.73;5.63;;;6.50;99.90;;;;;;5080857;28;20637;-70
2023/12/15 03:11:54;;;;;;;5.63;5.53;;;6.50;99.90;;;;;;5081725;28;20565;-69
2023/12/15 03:14:23;;;;;;;4.70;4.70;;;6.60;99.90;;;;;;5078471;28;20468;-69
2023/12/15 03:16:50;;;;;;;5.53;5.43;;;6.50;99.90;;;;;;5084732;28;21059;-71
2023/12/15 03:19:17;;;;;;;4.67;4.67;;;6.60;99.90;;;;;;5076242;28;20468;-71
2023/12/15 03:21:44;;;;;;;5.00;5.00;;;6.60;99.90;;;;;;5088285;28;20536;-69
2023/12/15 03:24:12;;;;;;;4.90;4.90;;;6.60;99.90;;;;;;5068408;28;20492;-71
2023/12/15 03:26:39;;;;;;;5.57;5.47;;;6.60;99.90;;;;;;5086203;28;20747;-69
2023/12/15 03:29:06;;;;;;;6.00;5.90;;;6.60;99.90;;;;;;5082586;28;21039;-72
2023/12/15 03:31:34;;;;;;;5.43;5.33;;;6.70;99.90;;;;;;5081190;28;20462;-71
2023/12/15 03:34:00;;;;;;;4.83;4.83;;;6.60;99.90;;;;;;5087064;28;20458;-70
2023/12/15 03:36:27;;;;;;;5.37;5.27;;;6.60;99.90;;;;;;5087160;28;20810;-69
2023/12/15 03:38:54;;;;;;;6.00;5.90;;;6.70;99.90;;;;;;5071802;28;20880;-71
2023/12/15 03:41:21;;;;;;;4.40;4.40;;;6.70;99.90;;;;;;5083760;28;20459;-70
2023/12/15 03:43:48;;;;;;;4.03;4.03;;;6.70;99.90;;;;;;5087958;28;20461;-71
2023/12/15 03:46:15;;;;;;;6.50;6.40;;;6.60;99.90;;;;;;5077701;28;20553;-70
2023/12/15 03:48:43;;;;;;;7.00;6.90;;;6.60;99.90;;;;;;5080061;28;20896;-70
2023/12/15 03:51:10;;;;;;;8.47;8.37;;;6.60;99.90;;;;;;5083791;28;20466;-70
2023/12/15 03:53:38;;;;;;;8.33;8.23;;;6.60;99.90;;;;;;5077808;28;20982;-71
2023/12/15 03:56:06;;;;;;;9.40;9.20;;;6.70;99.90;;;;;;5085699;28;20937;-70
2023/12/15 03:58:33;;;;;;;8.70;8.60;;;6.80;99.90;;;;;;5084696;28;20545;-70
2023/12/15 04:01:00;;;;;;;9.53;9.33;;;6.80;99.90;;;;;;5079344;28;20471;-70
2023/12/15 04:03:27;;;;;;;8.60;8.50;;;6.80;99.90;;;;;;5088180;28;20458;-71
2023/12/15 04:05:57;;;;;;;8.90;8.80;;;6.80;99.90;;;;;;5091543;28;20462;-70
2023/12/15 04:08:25;;;;;;;9.60;9.40;;;6.80;99.90;;;;;;5078506;28;20472;-69
2023/12/15 04:10:53;;;;;;;9.80;9.60;;;6.80;99.90;;;;;;5083671;28;20451;-71
2023/12/15 04:13:20;;;;;;;9.57;9.37;;;6.80;99.90;;;;;;5078234;28;20467;-71
2023/12/15 04:15:47;;;;;;;13.13;12.73;;;6.80;99.90;;;;;;5079025;28;20873;-71
2023/12/15 04:18:14;;;;;;;18.77;18.07;;;6.80;99.90;;;;;;5088226;28;20531;-70
2023/12/15 04:20:42;;;;;;;16.63;16.03;;;6.80;99.90;;;;;;5091673;28;20465;-72
2023/12/15 04:23:12;;;;;;;14.27;13.87;;;6.80;99.90;;;;;;5087348;28;20469;-71
2023/12/15 04:25:39;;;;;;;14.27;13.87;;;6.80;99.90;;;;;;5087579;28;20972;-73
2023/12/15 04:28:06;;;;;;;13.93;13.53;;;6.80;99.90;;;;;;5083215;28;20498;-74
2023/12/15 04:30:33;;;;;;;13.87;13.47;;;6.80;99.90;;;;;;5082845;28;20481;-71
2023/12/15 04:33:00;;;;;;;13.90;13.50;;;6.80;99.90;;;;;;5083240;28;20469;-71
2023/12/15 04:35:28;;;;;;;13.17;12.80;;;6.80;99.90;;;;;;5079622;28;20519;-72
2023/12/15 04:37:55;;;;;;;12.33;12.03;;;6.80;99.90;;;;;;5087112;28;21016;-70
2023/12/15 04:40:23;;;;;;;13.40;13.00;;;6.70;99.90;;;;;;5085518;28;20458;-75
2023/12/15 04:42:52;;;;;;;13.27;12.87;;;6.70;99.90;;;;;;5093900;28;20455;-72
2023/12/15 04:45:19;;;;;;;13.90;13.50;;;6.80;99.90;;;;;;5081698;28;20474;-73
2023/12/15 04:47:45;;;;;;;12.40;12.10;;;6.80;99.90;;;;;;5076395;28;20460;-74
2023/12/15 04:50:12;;;;;;;13.87;13.47;;;6.80;99.90;;;;;;5083909;28;20461;-71
2023/12/15 04:52:39;;;;;;;12.77;12.47;;;6.80;99.90;;;;;;5085430;28;20466;-72
2023/12/15 04:55:06;;;;;;;13.80;13.40;;;6.80;99.90;;;;;;5087816;28;20461;-73
2023/12/15 04:57:36;;;;;;;14.13;13.73;;;6.80;99.90;;;;;;5077029;28;20533;-74
2023/12/15 05:00:04;;;;;;;14.23;13.83;;;6.80;99.90;;;;;;5086728;28;20966;-73
2023/12/15 05:02:30;;;;;;;13.87;13.47;;;6.90;99.90;;;;;;5080995;28;20459;-74
2023/12/15 05:04:58;;;;;;;13.80;13.40;;;6.80;99.90;;;;;;5075935;28;20469;-72
2023/12/15 05:07:25;;;;;;;14.27;13.87;;;6.80;99.90;;;;;;5086121;28;20957;-71
2023/12/15 05:09:51;;;;;;;15.20;14.70;;;6.80;99.90;;;;;;5083566;28;20462;-71
2023/12/15 05:12:18;;;;;;;15.47;14.97;;;6.90;99.90;;;;;;5069035;28;20822;-73
2023/12/15 05:14:46;;;;;;;15.00;14.50;;;6.90;99.90;;;;;;5082988;28;20960;-72
2023/12/15 05:17:14;;;;;;;15.40;14.90;;;7.00;99.90;;;;;;5072594;28;20509;-73
2023/12/15 05:19:41;;;;;;;14.43;14.03;;;7.00;99.90;;;;;;5084341;28;20455;-72
2023/12/15 05:22:08;;;;;;;14.43;14.03;;;6.90;99.90;;;;;;5088615;28;20455;-71
2023/12/15 05:24:35;;;;;;;14.77;14.27;;;6.90;99.90;;;;;;5076265;28;20884;-73
2023/12/15 05:27:03;;;;;;;15.40;14.90;;;7.00;99.90;;;;;;5086823;28;20472;-73
2023/12/15 05:29:30;;;;;;;14.30;13.90;;;7.00;99.90;;;;;;5077547;28;20750;-73
2023/12/15 05:31:59;;;;;;;14.40;14.00;;;7.10;99.90;;;;;;5077816;28;21211;-73
2023/12/15 05:34:25;;;;;;;14.77;14.30;;;7.00;99.90;;;;;;5086156;28;20454;-72
2023/12/15 05:36:53;;;;;;;14.30;13.90;;;7.00;99.90;;;;;;5087050;28;20554;-72
2023/12/15 05:39:19;;;;;;;14.57;14.17;;;7.00;99.90;;;;;;5076723;28;20486;-73
2023/12/15 05:41:47;;;;;;;14.40;14.00;;;7.10;99.90;;;;;;5074655;28;20462;-76
2023/12/15 05:44:14;;;;;;;14.37;13.97;;;7.10;99.90;;;;;;5075776;28;20581;-73
2023/12/15 05:46:42;;;;;;;14.13;13.73;;;7.10;99.90;;;;;;5094406;28;20475;-73
2023/12/15 05:49:11;;;;;;;14.97;14.47;;;7.10;99.90;;;;;;5082626;28;20471;-73
2023/12/15 05:51:38;;;;;;;14.57;14.17;;;7.10;99.90;;;;;;5084670;28;21271;-73
2023/12/15 05:54:06;;;;;;;14.90;14.40;;;7.10;99.90;;;;;;5078239;28;20462;-75
2023/12/15 05:56:33;;;;;;;15.50;15.00;;;7.10;99.90;;;;;;5084722;28;20952;-72
2023/12/15 05:59:01;;;;;;;14.63;14.23;;;7.10;99.90;;;;;;5070511;28;20492;-73
2023/12/15 06:01:28;;;;;;;14.60;14.20;;;7.10;99.90;;;;;;5077331;28;20458;-74
2023/12/15 06:03:55;;;;;;;14.97;14.47;;;7.10;99.90;;;;;;5086024;28;20451;-74
2023/12/15 06:06:23;;;;;;;14.80;14.40;;;7.10;99.90;;;;;;5077869;28;20460;-73
2023/12/15 06:08:50;;;;;;;15.53;15.03;;;7.10;99.90;;;;;;5085186;28;20465;-70
2023/12/15 06:11:17;;;;;;;16.23;15.73;;;7.20;99.90;;;;;;5078289;28;20462;-74
2023/12/15 06:13:44;;;;;;;15.50;15.00;;;7.20;99.90;;;;;;5082361;28;20494;-74
2023/12/15 06:16:18;;;;;;;15.50;15.00;;;7.20;99.90;;;;;;5078422;28;20471;-71
2023/12/15 06:18:46;;;;;;;15.80;15.30;;;7.20;99.90;;;;;;5085317;28;21008;-73
2023/12/15 06:21:20;;;;;;;15.53;15.03;;;7.20;99.90;;;;;;5085408;28;20465;-71
2023/12/15 06:23:49;;;;;;;14.80;14.40;;;7.20;99.90;;;;;;5085777;28;20535;-73
2023/12/15 06:26:19;;;;;;;15.37;14.87;;;7.10;99.90;;;;;;5079695;28;20471;-74
2023/12/15 06:28:46;;;;;;;15.20;14.70;;;7.20;99.90;;;;;;5073832;28;20493;-71
2023/12/15 06:31:13;;;;;;;15.50;15.00;;;7.20;99.90;;;;;;5085562;28;20994;-73
2023/12/15 06:33:40;;;;;;;15.80;15.30;;;7.20;99.90;;;;;;5085335;28;21032;-70
2023/12/15 06:36:08;;;;;;;15.30;14.80;;;7.20;99.90;;;;;;5087499;28;20521;-73
2023/12/15 06:38:36;;;;;;;15.80;15.30;;;7.20;99.90;;;;;;5069958;28;21081;-72
2023/12/15 06:41:07;;;;;;;15.67;15.17;;;7.30;99.90;;;;;;5076207;28;20459;-72
2023/12/15 06:43:33;;;;;;;16.77;16.17;;;7.30;99.90;;;;;;5086489;28;20544;-75
2023/12/15 06:46:00;;;;;;;15.67;15.17;;;7.30;99.90;;;;;;5084340;28;20450;-74
2023/12/15 06:48:27;;;;;;;16.50;15.90;;;7.30;99.90;;;;;;5084278;28;20562;-73
2023/12/15 06:50:54;;;;;;;16.87;16.27;;;7.30;99.90;;;;;;5079003;28;21013;-73
2023/12/15 06:53:21;;;;;;;16.40;15.80;;;7.30;99.90;;;;;;5079522;28;20467;-74
2023/12/15 06:55:49;;;;;;;16.53;15.93;;;7.30;99.90;;;;;;5082075;28;20483;-73
2023/12/15 06:58:17;;;;;;;16.00;15.50;;;7.40;99.90;;;;;;5071387;28;21036;-73
2023/12/15 07:00:44;;;;;;;15.77;15.27;;;7.30;99.90;;;;;;5067786;28;20583;-71
2023/12/15 07:03:12;;;;;;;15.20;14.70;;;7.40;99.90;;;;;;5076867;28;20462;-74
2023/12/15 07:05:39;;;;;;;16.13;15.60;;;7.30;99.90;;;;;;5082367;28;20458;-75
2023/12/15 07:08:06;;;;;;;17.30;16.70;;;7.40;99.90;;;;;;5079908;28;20465;-74
2023/12/15 07:10:33;;;;;;;15.73;15.23;;;7.30;99.90;;;;;;5077301;28;20466;-73
2023/12/15 07:13:00;;;;;;;16.00;15.50;;;7.30;99.90;;;;;;5067943;28;20465;-71
2023/12/15 07:15:29;;;;;;;16.90;16.30;;;7.30;99.90;;;;;;5087025;28;20458;-73
2023/12/15 07:17:56;;;;;;;16.07;15.57;;;7.30;99.90;;;;;;5087843;28;20528;-76
2023/12/15 07:20:25;;;;;;;17.37;16.77;;;7.30;99.90;;;;;;5081716;28;20865;-75
2023/12/15 07:22:52;;;;;;;17.13;16.53;;;7.40;99.90;;;;;;5071756;28;20835;-74
2023/12/15 07:25:19;;;;;;;17.80;17.10;;;7.40;99.90;;;;;;5056581;28;20568;-73
2023/12/15 07:27:47;;;;;;;16.67;16.07;;;7.40;99.90;;;;;;5058142;28;20462;-74
2023/12/15 07:30:15;;;;;;;16.83;16.23;;;7.40;99.90;;;;;;5059848;28;20933;-72
2023/12/15 07:32:44;;;;;;;16.47;15.87;;;7.40;99.90;;;;;;5063998;28;20526;-73
2023/12/15 07:35:11;;;;;;;16.57;15.97;;;7.40;99.90;;;;;;5053778;28;20516;-74
2023/12/15 07:37:39;;;;;;;16.57;15.97;;;7.40;99.90;;;;;;5054087;28;20492;-71
2023/12/15 07:40:07;;;;;;;16.30;15.70;;;7.50;99.90;;;;;;5052012;28;20467;-74
2023/12/15 07:42:35;;;;;;;15.90;15.30;;;7.50;99.90;;;;;;5056758;28;20980;-76
2023/12/15 07:45:02;;;;;;;16.30;15.70;;;7.50;99.90;;;;;;5056320;28;20459;-75
2023/12/15 07:47:29;;;;;;;15.87;15.27;;;7.50;99.90;;;;;;5056384;28;20917;-74
2023/12/15 07:49:58;;;;;;;16.10;15.50;;;7.50;99.90;;;;;;5059778;28;20533;-73
2023/12/15 07:52:25;;;;;;;16.20;15.60;;;7.40;99.90;;;;;;5053406;28;20480;-74
2023/12/15 07:54:52;;;;;;;16.33;15.73;;;7.40;99.90;;;;;;5056057;28;20464;-75
2023/12/15 07:57:19;;;;;;;15.70;15.20;;;7.40;99.90;;;;;;5051604;28;20463;-73
2023/12/15 07:59:46;;;;;;;16.23;15.63;;;7.50;99.90;;;;;;5056726;28;20523;-72
2023/12/15 08:02:16;;;;;;;15.30;14.80;;;7.60;99.90;;;;;;5057314;28;20563;-72
2023/12/15 08:04:44;;;;;;;14.57;14.10;;;7.50;99.90;;;;;;5057132;28;20462;-74
2023/12/15 08:07:12;;;;;;;15.30;14.80;;;7.40;99.90;;;;;;5053273;28;20958;-72
2023/12/15 08:09:40;;;;;;;15.20;14.70;;;7.40;99.90;;;;;;5058375;28;20464;-73
2023/12/15 08:12:07;;;;;;;15.30;14.80;;;7.40;99.90;;;;;;5055592;28;20475;-72
2023/12/15 08:14:34;;;;;;;15.20;14.70;;;7.50;99.90;;;;;;5058548;28;20477;-75
2023/12/15 08:17:00;;;;;;;15.07;14.57;;;7.40;99.90;;;;;;5060155;28;20493;-72
2023/12/15 08:19:31;;;;;;;15.37;14.87;;;7.40;99.90;;;;;;5053668;28;20487;-76
2023/12/15 08:21:58;;;;;;;16.20;15.60;;;7.50;99.90;;;;;;5057230;28;21006;-74
2023/12/15 08:24:26;;;;;;;15.87;15.27;;;7.60;99.90;;;;;;5065303;28;20484;-73
2023/12/15 08:26:53;;;;;;;15.73;15.23;;;7.60;99.90;;;;;;5076128;28;20465;-73
2023/12/15 08:29:21;;;;;;;16.10;15.50;;;7.60;99.90;;;;;;5072023;28;20841;-74
2023/12/15 08:31:48;;;;;;;16.37;15.77;;;7.70;99.90;;;;;;5078568;28;20830;-74
2023/12/15 08:34:16;;;;;;;15.30;14.80;;;7.70;99.90;;;;;;5076306;28;20551;-74
2023/12/15 08:36:43;;;;;;;16.10;15.50;;;7.70;99.90;;;;;;5076761;28;20467;-72
2023/12/15 08:39:10;;;;;;;14.60;14.10;;;7.70;99.90;;;;;;5073335;28;20501;-71
2023/12/15 08:41:38;;;;;;;15.47;14.97;;;7.70;99.90;;;;;;5081475;28;20462;-74
2023/12/15 08:44:06;;;;;;;15.60;15.10;;;7.70;99.90;;;;;;5079574;28;20455;-74
2023/12/15 08:46:35;;;;;;;15.43;14.93;;;7.80;99.90;;;;;;5075169;28;20970;-75
2023/12/15 08:49:02;;;;;;;15.60;15.10;;;7.80;99.90;;;;;;5078834;28;21007;-73
2023/12/15 08:51:29;;;;;;;14.97;14.47;;;7.80;99.90;;;;;;5078209;28;21113;-75
2023/12/15 08:53:56;;;;;;;14.87;14.37;;;7.90;99.90;;;;;;5072202;28;20462;-71
2023/12/15 08:56:25;;;;;;;14.57;14.07;;;7.90;99.90;;;;;;5078281;28;20466;-74
2023/12/15 08:58:53;;;;;;;14.03;13.63;;;7.80;99.90;;;;;;5048466;28;20498;-72
2023/12/15 09:01:20;;;;;;;14.17;13.77;;;7.90;99.90;;;;;;5063532;28;20548;-71
2023/12/15 09:03:47;;;;;;;14.57;14.07;;;7.90;99.90;;;;;;5063483;28;20486;-71
2023/12/15 09:06:14;;;;;;;14.30;13.80;;;8.00;99.90;;;;;;5075687;28;20475;-72
2023/12/15 09:08:42;;;;;;;14.20;13.80;;;8.00;99.90;;;;;;5074968;28;20493;-72
2023/12/15 09:11:11;;;;;;;14.90;14.40;;;8.00;99.90;;;;;;5076849;28;20455;-71
2023/12/15 09:13:38;;;;;;;14.97;14.47;;;7.90;99.90;;;;;;5070707;28;21067;-72
2023/12/15 09:16:07;;;;;;;14.37;13.87;;;8.00;99.90;;;;;;5077475;28;20462;-72
2023/12/15 09:18:34;;;;;;;13.87;13.47;;;7.90;99.90;;;;;;5074326;28;20497;-72
2023/12/15 09:21:00;;;;;;;14.60;14.10;;;7.90;99.90;;;;;;5076158;28;20580;-73
2023/12/15 09:23:28;;;;;;;14.63;14.13;;;8.00;99.90;;;;;;5077172;28;20463;-72
2023/12/15 09:25:55;;;;;;;14.00;13.60;;;8.00;99.90;;;;;;5070481;28;20497;-72
2023/12/15 09:28:22;;;;;;;14.23;13.83;;;8.00;99.90;;;;;;5073937;28;20492;-72
2023/12/15 09:30:49;;;;;;;13.87;13.47;;;8.10;99.90;;;;;;5076256;28;20473;-72
2023/12/15 09:33:17;;;;;;;14.30;13.90;;;8.10;99.90;;;;;;5068367;28;20467;-72
2023/12/15 09:35:44;;;;;;;14.07;13.67;;;8.00;99.90;;;;;;5072162;28;20462;-72
2023/12/15 09:38:11;;;;;;;13.87;13.47;;;8.10;99.90;;;;;;5064975;28;20471;-73
2023/12/15 09:40:37;;;;;;;13.80;13.40;;;8.10;99.90;;;;;;5068358;28;21029;-72
2023/12/15 09:43:04;;;;;;;13.73;13.33;;;8.00;99.90;;;;;;5075216;28;20495;-72
2023/12/15 09:45:31;;;;;;;14.30;13.90;;;8.00;99.90;;;;;;5069520;28;20477;-72
2023/12/15 09:48:02;;;;;;;14.80;14.30;;;8.00;99.90;;;;;;5073085;28;20474;-73
2023/12/15 09:50:33;;;;;;;14.30;13.90;;;8.10;99.90;;;;;;5071697;28;20497;-71
2023/12/15 09:53:02;;;;;;;13.83;13.43;;;8.20;99.90;;;;;;5072932;28;20954;-71
2023/12/15 09:55:31;;;;;;;13.77;13.37;;;8.10;99.90;;;;;;5074362;28;20474;-74
2023/12/15 09:57:58;;;;;;;12.77;12.47;;;8.10;99.90;;;;;;5073495;28;20490;-72
2023/12/15 10:00:25;;;;;;;14.30;13.90;;;8.10;99.90;;;;;;5074844;28;20585;-73
2023/12/15 10:02:52;;;;;;;14.47;14.03;;;8.20;99.90;;;;;;5070837;28;20980;-73
2023/12/15 10:05:19;;;;;;;13.70;13.30;;;8.30;99.90;;;;;;5077888;28;20462;-72
2023/12/15 10:07:47;;;;;;;14.13;13.73;;;8.40;99.90;;;;;;5074466;28;20455;-72
2023/12/15 10:10:16;;;;;;;14.30;13.90;;;8.40;99.90;;;;;;5071797;28;20497;-72
2023/12/15 10:12:43;;;;;;;14.40;13.90;;;8.50;99.90;;;;;;5070997;28;20467;-74
2023/12/15 10:15:10;;;;;;;13.90;13.50;;;8.60;99.90;;;;;;5077253;28;20816;-71
2023/12/15 10:17:37;;;;;;;13.90;13.50;;;8.60;99.90;;;;;;5070919;28;20478;-71
2023/12/15 10:20:09;;;;;;;13.47;13.07;;;8.70;99.90;;;;;;5075906;28;20470;-72
2023/12/15 10:22:36;;;;;;;12.93;12.53;;;8.70;99.90;;;;;;5070106;28;20472;-71
2023/12/15 10:25:15;;;;;;;12.20;11.90;;;8.60;99.90;;;;;;5071210;28;20506;-71
2023/12/15 10:27:42;;;;;;;12.83;12.43;;;8.60;99.90;;;;;;5076296;28;20467;-72
2023/12/15 10:30:10;;;;;;;12.50;12.20;;;8.70;99.90;;;;;;5073576;28;20486;-75
2023/12/15 10:32:37;;;;;;;12.40;12.10;;;8.70;99.90;;;;;;5071317;28;20894;-72
2023/12/15 10:35:07;;;;;;;12.47;12.17;;;8.80;99.90;;;;;;5074459;28;20462;-70
2023/12/15 10:37:34;;;;;;;12.07;11.77;;;8.80;99.90;;;;;;5068779;28;20467;-71
2023/12/15 10:40:05;;;;;;;12.27;11.97;;;8.90;99.90;;;;;;5076639;28;20482;-72
2023/12/15 10:42:32;;;;;;;12.20;11.90;;;8.90;99.90;;;;;;5074418;28;21559;-71
2023/12/15 10:44:59;;;;;;;12.43;12.13;;;8.90;99.90;;;;;;5075919;28;20493;-71
2023/12/15 10:47:26;;;;;;;12.63;12.23;;;8.90;99.90;;;;;;5075149;28;20486;-71
2023/12/15 10:49:54;;;;;;;12.37;12.07;;;8.90;99.90;;;;;;5070691;28;20519;-71
2023/12/15 10:52:23;;;;;;;11.70;11.40;;;8.90;99.90;;;;;;5066257;28;20554;-72
2023/12/15 10:54:50;;;;;;;12.23;11.93;;;8.90;99.90;;;;;;5075279;28;20977;-71
2023/12/15 10:57:19;;;;;;;12.07;11.77;;;9.00;99.90;;;;;;5072349;28;20486;-70
2023/12/15 10:59:48;;;;;;;12.30;12.00;;;9.10;99.90;;;;;;5074679;28;20466;-73
2023/12/15 11:02:17;;;;;;;12.20;11.90;;;9.10;99.90;;;;;;5070643;28;20470;-72
2023/12/15 11:04:44;;;;;;;12.47;12.10;;;9.00;99.90;;;;;;5068845;28;21918;-73
2023/12/15 11:07:11;;;;;;;12.90;12.50;;;9.00;99.90;;;;;;5069224;28;20477;-72
2023/12/15 11:09:38;;;;;;;11.70;11.40;;;9.10;99.90;;;;;;5072956;28;20490;-70
2023/12/15 11:12:28;;;;;;;12.97;12.57;;;9.10;99.90;;;;;;5071218;28;20479;-72
2023/12/15 11:14:58;;;;;;;12.27;11.90;;;9.10;99.90;;;;;;5072612;28;20813;-71
2023/12/15 11:17:26;;;;;;;11.60;11.30;;;9.20;99.90;;;;;;5079477;28;20496;-73
2023/12/15 11:19:59;;;;;;;11.83;11.53;;;9.20;99.90;;;;;;5078656;28;20501;-72
2023/12/15 11:22:28;;;;;;;12.47;12.07;;;9.30;99.90;;;;;;5078271;28;20458;-72
2023/12/15 11:24:55;;;;;;;12.17;11.77;;;9.30;99.90;;;;;;5073087;28;20962;-72
2023/12/15 11:27:22;;;;;;;11.70;11.40;;;9.40;99.90;;;;;;5077664;28;20463;-71
2023/12/15 11:29:50;;;;;;;12.30;11.90;;;9.40;99.90;;;;;;5074737;28;21027;-73
2023/12/15 11:32:29;;;;;;;11.70;11.40;;;9.30;99.90;;;;;;5080185;28;20455;-71
2023/12/15 11:34:57;;;;;;;11.37;11.07;;;9.40;99.90;;;;;;5075094;28;20466;-72
2023/12/15 11:37:25;;;;;;;12.10;11.70;;;9.40;99.90;;;;;;5076896;28;21109;-71
2023/12/15 11:39:52;;;;;;;12.70;12.30;;;9.40;99.90;;;;;;5077160;28;20557;-73
2023/12/15 11:42:20;;;;;;;12.20;11.80;;;9.40;99.90;;;;;;5076194;28;21148;-71
2023/12/15 11:44:47;;;;;;;12.40;12.00;;;9.40;99.90;;;;;;5079599;28;21300;-73
2023/12/15 11:47:16;;;;;;;12.20;11.80;;;9.40;99.90;;;;;;5078241;28;20459;-71
2023/12/15 11:49:44;;;;;;;13.00;12.60;;;9.40;99.90;;;;;;5073612;28;20510;-73
2023/12/15 11:52:12;;;;;;;12.30;11.90;;;9.40;99.90;;;;;;5073518;28;20472;-71
2023/12/15 11:54:39;;;;;;;11.93;11.63;;;9.30;99.90;;;;;;5078902;28;20455;-72
2023/12/15 11:57:06;;;;;;;12.43;12.03;;;9.40;99.90;;;;;;5078752;28;20520;-70
2023/12/15 11:59:38;;;;;;;12.13;11.73;;;9.30;99.90;;;;;;5076452;28;20543;-71
2023/12/15 12:02:06;;;;;;;12.60;12.20;;;9.40;99.90;;;;;;5077755;28;20462;-72
2023/12/15 12:04:34;;;;;;;12.13;11.73;;;9.50;99.90;;;;;;5078075;28;20471;-71
2023/12/15 12:07:02;;;;;;;12.37;11.97;;;9.40;99.90;;;;;;5072746;28;20464;-71
2023/12/15 12:09:29;;;;;;;12.80;12.40;;;9.50;99.90;;;;;;5070939;28;20497;-71
2023/12/15 12:11:57;;;;;;;12.30;11.90;;;9.40;99.90;;;;;;5077349;28;20547;-71
2023/12/15 12:14:27;;;;;;;13.07;12.67;;;9.40;99.90;;;;;;5076428;28;21073;-71
2023/12/15 12:16:55;;;;;;;13.13;12.73;;;9.40;99.90;;;;;;5078466;28;20939;-72
2023/12/15 12:19:22;;;;;;;12.73;12.40;;;9.40;99.90;;;;;;5076020;28;20524;-71
2023/12/15 12:21:54;;;;;;;13.10;12.70;;;9.40;99.90;;;;;;5074783;28;20482;-72
2023/12/15 12:24:21;;;;;;;12.57;12.17;;;9.50;99.90;;;;;;5076821;28;20953;-71
2023/12/15 12:26:50;;;;;;;13.10;12.70;;;9.50;99.90;;;;;;5069287;28;20465;-73
2023/12/15 12:29:17;;;;;;;12.97;12.57;;;9.60;99.90;;;;;;5076548;28;20494;-70
2023/12/15 12:31:45;;;;;;;12.43;12.03;;;9.70;99.90;;;;;;5078276;28;20470;-71
2023/12/15 12:34:11;;;;;;;12.57;12.17;;;9.70;99.90;;;;;;5078813;28;20481;-70
2023/12/15 12:36:38;;;;;;;13.20;12.80;;;9.70;99.90;;;;;;5077310;28;20576;-70
2023/12/15 12:39:06;;;;;;;12.37;11.97;;;9.80;99.90;;;;;;5075013;28;20463;-70
2023/12/15 12:41:34;;;;;;;12.70;12.30;;;9.80;99.90;;;;;;5075411;28;20474;-70
2023/12/15 12:44:00;;;;;;;12.53;12.13;;;9.70;99.90;;;;;;5071864;28;20957;-70
2023/12/15 12:46:27;;;;;;;12.57;12.17;;;9.70;99.90;;;;;;5077832;28;20470;-71